Time;durP1;ratioP1;P1;durP2;ratioP2;P2;SDS_P1;SDS_P2;PMS_P1;PMS_P2;Temp;Humidity;BMP_temperature;BMP_pressure;BME280_temperature;BME280_humidity;BME280_pressure;Samples;Min_cycle;Max_cycle;Signal;HPM_P1;HPM_P2
2022/11/30 00:00:16;;;;;;;4.82;2.90;;;19.80;62.50;;;;;;4974800;28;20074;-57
2022/11/30 00:02:41;;;;;;;5.28;3.10;;;19.70;62.50;;;;;;4975481;28;20074;-57
2022/11/30 00:05:07;;;;;;;4.65;2.65;;;19.70;62.50;;;;;;4975426;28;20442;-57
2022/11/30 00:07:33;;;;;;;4.97;2.95;;;19.70;62.50;;;;;;4973271;28;20043;-57
2022/11/30 00:09:58;;;;;;;4.53;2.92;;;19.70;62.50;;;;;;4975657;28;20101;-58
2022/11/30 00:12:24;;;;;;;4.65;3.08;;;19.70;62.50;;;;;;4975195;28;20043;-57
2022/11/30 00:14:49;;;;;;;7.38;3.05;;;19.70;62.50;;;;;;4974919;28;20035;-57
2022/11/30 00:17:16;;;;;;;4.32;2.95;;;19.70;62.50;;;;;;4975204;28;20050;-57
2022/11/30 00:19:41;;;;;;;5.00;3.00;;;19.70;62.50;;;;;;4975154;28;20051;-57
2022/11/30 00:22:07;;;;;;;4.63;3.03;;;19.70;62.50;;;;;;4974638;28;20054;-57
2022/11/30 00:24:33;;;;;;;5.43;3.28;;;19.70;62.50;;;;;;4975173;28;20050;-57
2022/11/30 00:26:58;;;;;;;4.45;2.80;;;19.70;62.50;;;;;;4973292;28;20049;-58
2022/11/30 00:29:24;;;;;;;6.07;3.20;;;19.60;62.40;;;;;;4974764;28;20043;-57
2022/11/30 00:31:49;;;;;;;5.65;2.92;;;19.60;62.40;;;;;;4975013;28;20042;-57
2022/11/30 00:34:15;;;;;;;4.90;3.00;;;19.60;62.40;;;;;;4974018;28;20162;-57
2022/11/30 00:36:40;;;;;;;5.10;3.28;;;19.60;62.40;;;;;;4975144;28;20125;-58
2022/11/30 00:39:06;;;;;;;4.13;2.67;;;19.60;62.40;;;;;;4975261;28;20130;-57
2022/11/30 00:41:31;;;;;;;4.95;3.22;;;19.60;62.40;;;;;;4973761;28;20157;-57
2022/11/30 00:43:57;;;;;;;5.10;3.15;;;19.50;62.40;;;;;;4973345;28;20077;-57
2022/11/30 00:46:22;;;;;;;7.00;3.25;;;19.60;62.40;;;;;;4974654;28;20046;-57
2022/11/30 00:48:48;;;;;;;4.80;3.10;;;19.60;62.40;;;;;;4974293;28;20070;-57
2022/11/30 00:51:13;;;;;;;5.80;3.10;;;19.60;62.40;;;;;;4974525;28;20042;-57
2022/11/30 00:53:39;;;;;;;4.72;3.22;;;19.50;62.40;;;;;;4974440;28;20042;-57
2022/11/30 00:56:05;;;;;;;4.85;2.95;;;19.50;62.40;;;;;;4974148;28;20482;-57
2022/11/30 00:58:31;;;;;;;5.45;3.17;;;19.50;62.40;;;;;;4974677;28;20075;-57
2022/11/30 01:00:56;;;;;;;5.95;3.08;;;19.50;62.40;;;;;;4974505;28;20108;-57
2022/11/30 01:03:22;;;;;;;5.03;2.85;;;19.50;62.40;;;;;;4973737;28;20498;-57
2022/11/30 01:05:47;;;;;;;5.30;3.40;;;19.50;62.40;;;;;;4973106;28;20053;-57
2022/11/30 01:08:13;;;;;;;5.68;3.03;;;19.50;62.40;;;;;;4973989;28;20050;-57
2022/11/30 01:10:39;;;;;;;7.20;3.35;;;19.40;62.30;;;;;;4973880;28;20046;-57
2022/11/30 01:13:05;;;;;;;8.35;3.88;;;19.50;62.40;;;;;;4974640;28;20053;-57
2022/11/30 01:15:34;;;;;;;5.03;3.40;;;19.50;62.40;;;;;;4973977;28;20051;-57
2022/11/30 01:17:59;;;;;;;5.18;3.47;;;19.40;63.00;;;;;;4972832;28;20070;-57
2022/11/30 01:20:25;;;;;;;6.07;3.53;;;19.40;62.30;;;;;;4973926;28;20053;-57
2022/11/30 01:22:50;;;;;;;5.80;3.60;;;19.40;62.30;;;;;;4974118;28;20049;-57
2022/11/30 01:25:16;;;;;;;5.47;3.28;;;19.40;62.30;;;;;;4973252;28;20047;-57
2022/11/30 01:27:41;;;;;;;6.18;3.90;;;19.40;62.30;;;;;;4974297;28;20086;-57
2022/11/30 01:30:07;;;;;;;7.05;3.70;;;19.40;62.30;;;;;;4973554;28;20089;-57
2022/11/30 01:32:33;;;;;;;5.85;3.20;;;19.40;62.30;;;;;;4973365;28;20472;-57
2022/11/30 01:34:58;;;;;;;6.15;3.63;;;19.40;62.20;;;;;;4972648;28;20046;-57
2022/11/30 01:37:24;;;;;;;6.75;3.80;;;19.40;62.30;;;;;;4972747;28;20053;-57
2022/11/30 01:39:50;;;;;;;6.13;3.78;;;19.40;62.30;;;;;;4974070;28;20050;-57
2022/11/30 01:42:17;;;;;;;5.85;3.42;;;19.30;62.20;;;;;;4973258;28;20057;-57
2022/11/30 01:44:57;;;;;;;7.03;3.50;;;19.40;62.30;;;;;;4973337;28;20093;-57
2022/11/30 01:47:25;;;;;;;7.47;4.03;;;19.40;62.20;;;;;;4972655;28;20047;-57
2022/11/30 01:49:55;;;;;;;6.88;3.53;;;19.30;62.20;;;;;;4973593;28;20146;-57
2022/11/30 01:52:24;;;;;;;5.78;3.50;;;19.40;62.30;;;;;;4971700;28;20054;-57
2022/11/30 01:54:55;;;;;;;6.65;3.60;;;19.30;62.20;;;;;;4972861;28;20094;-57
2022/11/30 01:57:26;;;;;;;5.93;3.85;;;19.30;62.20;;;;;;4972113;28;20049;-57
2022/11/30 01:59:53;;;;;;;5.90;3.53;;;19.30;62.20;;;;;;4956584;28;20447;-57
2022/11/30 02:02:19;;;;;;;6.80;4.28;;;19.30;62.20;;;;;;4973192;28;20129;-57
2022/11/30 02:04:45;;;;;;;6.75;4.07;;;19.30;62.20;;;;;;4972305;28;20049;-57
2022/11/30 02:07:11;;;;;;;7.65;4.38;;;19.30;62.20;;;;;;4972573;28;20126;-58
2022/11/30 02:09:42;;;;;;;6.38;4.00;;;19.30;62.20;;;;;;4972225;28;20130;-57
2022/11/30 02:12:08;;;;;;;7.45;4.40;;;19.30;62.20;;;;;;4973312;28;20069;-57
2022/11/30 02:14:39;;;;;;;8.68;4.35;;;19.30;62.20;;;;;;4955671;28;20066;-57
2022/11/30 02:17:32;;;;;;;8.15;4.50;;;19.30;62.20;;;;;;4956597;28;20078;-58
2022/11/30 02:20:07;;;;;;;5.93;4.18;;;19.20;62.10;;;;;;4971729;28;20051;-57
2022/11/30 02:22:37;;;;;;;6.97;3.95;;;19.20;62.10;;;;;;4972116;28;20121;-58
2022/11/30 02:25:29;;;;;;;6.80;4.20;;;19.20;62.20;;;;;;4971866;28;20482;-57
2022/11/30 02:28:13;;;;;;;6.63;4.40;;;19.20;62.10;;;;;;4957404;28;20482;-58
2022/11/30 02:30:41;;;;;;;7.60;4.40;;;19.20;62.10;;;;;;4973350;28;20043;-57
2022/11/30 02:33:18;;;;;;;6.90;4.38;;;19.20;62.20;;;;;;4956164;28;20046;-57
2022/11/30 02:35:46;;;;;;;8.35;4.65;;;19.20;62.10;;;;;;4971634;28;20043;-57
2022/11/30 02:38:12;;;;;;;7.32;4.47;;;19.20;62.20;;;;;;4971736;28;20487;-57
2022/11/30 02:40:37;;;;;;;8.18;4.65;;;19.20;62.10;;;;;;4971294;28;20078;-57
2022/11/30 02:43:03;;;;;;;7.05;4.18;;;19.20;62.10;;;;;;4973101;28;20402;-57
2022/11/30 02:45:41;;;;;;;6.50;4.15;;;19.20;62.10;;;;;;4956014;28;20129;-57
2022/11/30 02:48:07;;;;;;;7.75;4.70;;;19.20;62.10;;;;;;4956052;28;20050;-57
2022/11/30 02:50:55;;;;;;;7.22;4.63;;;19.20;62.10;;;;;;4972659;28;20046;-57
2022/11/30 02:53:20;;;;;;;7.20;4.25;;;19.20;62.10;;;;;;4972745;28;20070;-57
2022/11/30 02:55:46;;;;;;;7.57;4.53;;;19.10;62.10;;;;;;4971577;28;20047;-58
2022/11/30 02:58:11;;;;;;;7.25;4.03;;;19.10;62.10;;;;;;4972993;28;20137;-57
2022/11/30 03:00:37;;;;;;;7.63;4.68;;;19.10;62.10;;;;;;4972838;28;20053;-57
2022/11/30 03:03:03;;;;;;;7.85;4.68;;;19.10;62.00;;;;;;4972477;28;20494;-57
2022/11/30 03:05:28;;;;;;;7.45;4.55;;;19.10;62.00;;;;;;4973066;28;20502;-57
2022/11/30 03:07:54;;;;;;;7.20;4.18;;;19.10;62.00;;;;;;4976079;28;20446;-57
2022/11/30 03:10:19;;;;;;;7.20;4.47;;;19.10;62.10;;;;;;4975680;28;20161;-57
2022/11/30 03:12:45;;;;;;;6.60;4.60;;;19.10;62.00;;;;;;4976501;28;20431;-57
2022/11/30 03:15:10;;;;;;;7.25;4.47;;;19.10;62.10;;;;;;4976042;28;20046;-58
2022/11/30 03:17:36;;;;;;;6.13;3.90;;;19.10;62.00;;;;;;4976141;28;20043;-57
2022/11/30 03:20:01;;;;;;;7.75;4.95;;;19.10;62.00;;;;;;4976261;28;20521;-57
2022/11/30 03:22:27;;;;;;;7.40;4.53;;;19.10;62.00;;;;;;4975938;28;20050;-57
2022/11/30 03:24:52;;;;;;;7.93;4.53;;;19.10;62.00;;;;;;4975947;28;20042;-57
2022/11/30 03:27:18;;;;;;;6.40;4.50;;;19.10;62.00;;;;;;4976227;28;20109;-57
2022/11/30 03:29:43;;;;;;;8.15;4.97;;;19.10;62.00;;;;;;4975924;28;20046;-57
2022/11/30 03:32:09;;;;;;;7.55;4.65;;;19.10;62.00;;;;;;4975420;28;20120;-57
2022/11/30 03:34:34;;;;;;;7.45;4.72;;;19.10;62.00;;;;;;4976476;28;20078;-57
2022/11/30 03:37:00;;;;;;;8.35;4.80;;;19.10;62.00;;;;;;4975310;28;20053;-56
2022/11/30 03:39:26;;;;;;;7.60;4.75;;;19.10;61.90;;;;;;4975746;28;20055;-57
2022/11/30 03:41:51;;;;;;;6.63;4.35;;;19.10;61.90;;;;;;4975687;28;20058;-57
2022/11/30 03:44:17;;;;;;;7.70;4.82;;;19.10;61.90;;;;;;4975236;28;20050;-57
2022/11/30 03:46:42;;;;;;;7.35;4.80;;;19.10;61.90;;;;;;4976101;28;20043;-57
2022/11/30 03:49:08;;;;;;;7.47;5.00;;;19.10;61.90;;;;;;4976033;28;20054;-57
2022/11/30 03:51:34;;;;;;;7.03;4.63;;;19.10;61.90;;;;;;4975239;28;20046;-57
2022/11/30 03:54:00;;;;;;;7.35;4.80;;;19.10;61.90;;;;;;4975755;28;20047;-57
2022/11/30 03:56:25;;;;;;;7.25;4.80;;;19.10;61.90;;;;;;4975571;28;20122;-58
2022/11/30 03:58:51;;;;;;;7.95;5.10;;;19.20;61.90;;;;;;4975260;28;20098;-57
2022/11/30 04:01:20;;;;;;;7.50;5.00;;;19.10;61.80;;;;;;4975363;28;20053;-57
2022/11/30 04:03:46;;;;;;;8.02;4.75;;;19.20;61.80;;;;;;4975520;28;20482;-57
2022/11/30 04:06:12;;;;;;;7.32;4.75;;;19.20;61.80;;;;;;4974622;28;20053;-57
2022/11/30 04:08:38;;;;;;;7.13;4.60;;;19.20;61.80;;;;;;4975498;28;20129;-57
2022/11/30 04:11:03;;;;;;;8.38;5.03;;;19.20;61.80;;;;;;4975495;28;20051;-57
2022/11/30 04:13:29;;;;;;;7.60;5.15;;;19.20;61.70;;;;;;4974624;28;20072;-57
2022/11/30 04:15:55;;;;;;;7.60;4.93;;;19.30;61.80;;;;;;4975587;28;20487;-57
2022/11/30 04:18:21;;;;;;;8.18;5.13;;;19.30;61.80;;;;;;4974154;28;20039;-57
2022/11/30 04:20:50;;;;;;;7.30;5.03;;;19.30;61.70;;;;;;4974626;28;20486;-57
2022/11/30 04:23:15;;;;;;;9.63;5.57;;;19.30;61.60;;;;;;4975076;28;20042;-57
2022/11/30 04:25:41;;;;;;;8.20;5.28;;;19.30;61.60;;;;;;4975366;28;20054;-57
2022/11/30 04:28:07;;;;;;;8.13;5.55;;;19.40;61.70;;;;;;4974660;28;20039;-57
2022/11/30 04:30:33;;;;;;;7.20;4.70;;;19.40;61.60;;;;;;4975039;28;20142;-57
2022/11/30 04:32:58;;;;;;;7.55;4.85;;;19.40;61.60;;;;;;4974892;28;20138;-57
2022/11/30 04:35:24;;;;;;;7.15;4.93;;;19.40;61.60;;;;;;4974338;28;20486;-57
2022/11/30 04:37:50;;;;;;;8.05;5.35;;;19.40;61.60;;;;;;4975222;28;20082;-57
2022/11/30 04:40:15;;;;;;;8.00;5.50;;;19.40;61.60;;;;;;4973738;28;20043;-57
2022/11/30 04:42:41;;;;;;;6.70;4.65;;;19.40;61.60;;;;;;4975227;28;20189;-57
2022/11/30 04:45:07;;;;;;;7.35;4.72;;;19.40;61.50;;;;;;4974914;28;20050;-57
2022/11/30 04:47:33;;;;;;;7.03;4.85;;;19.50;61.60;;;;;;4974149;28;20076;-57
2022/11/30 04:49:58;;;;;;;7.93;5.20;;;19.50;61.50;;;;;;4974967;28;20383;-56
2022/11/30 04:52:24;;;;;;;7.05;5.05;;;19.50;61.50;;;;;;4973979;28;20057;-56
2022/11/30 04:54:50;;;;;;;8.10;5.50;;;19.50;61.50;;;;;;4974276;28;20047;-57
2022/11/30 04:57:16;;;;;;;7.85;5.05;;;19.50;61.50;;;;;;4973313;28;20054;-57
2022/11/30 04:59:41;;;;;;;7.80;4.90;;;19.50;61.50;;;;;;4974570;28;20047;-57
2022/11/30 05:02:07;;;;;;;7.65;5.00;;;19.60;61.50;;;;;;4973482;28;20042;-57
2022/11/30 05:04:33;;;;;;;7.78;5.40;;;19.60;61.50;;;;;;4973283;28;20047;-57
2022/11/30 05:06:58;;;;;;;8.63;4.78;;;19.60;61.50;;;;;;4973387;28;20043;-57
2022/11/30 05:09:24;;;;;;;7.55;5.43;;;19.60;61.40;;;;;;4973496;28;20125;-57
2022/11/30 05:11:49;;;;;;;7.50;5.00;;;19.60;61.50;;;;;;4974409;28;20086;-56
2022/11/30 05:14:15;;;;;;;7.22;4.93;;;19.60;61.40;;;;;;4973700;28;20342;-57
2022/11/30 05:16:40;;;;;;;7.95;5.22;;;19.60;61.40;;;;;;4974114;28;20045;-57
2022/11/30 05:19:06;;;;;;;8.40;5.28;;;19.60;61.40;;;;;;4974348;28;20049;-56
2022/11/30 05:21:31;;;;;;;8.23;4.80;;;19.70;61.40;;;;;;4973749;28;20117;-56
2022/11/30 05:23:57;;;;;;;7.22;4.97;;;19.70;61.40;;;;;;4973830;28;20118;-57
2022/11/30 05:26:22;;;;;;;7.75;5.20;;;19.70;61.40;;;;;;4973858;28;20043;-57
2022/11/30 05:28:48;;;;;;;7.32;4.97;;;19.70;61.30;;;;;;4974084;28;20051;-57
2022/11/30 05:31:13;;;;;;;8.93;5.32;;;19.70;61.90;;;;;;4973410;28;20053;-56
2022/11/30 05:33:39;;;;;;;6.82;5.18;;;19.80;61.30;;;;;;4974239;28;20092;-56
2022/11/30 05:36:05;;;;;;;7.30;5.10;;;19.70;61.30;;;;;;4973329;28;20493;-56
2022/11/30 05:38:30;;;;;;;7.03;5.15;;;19.70;61.50;;;;;;4973350;28;20501;-58
2022/11/30 05:41:00;;;;;;;7.53;4.88;;;19.70;61.30;;;;;;4973477;28;20414;-57
2022/11/30 05:43:26;;;;;;;7.45;4.70;;;19.80;61.30;;;;;;4972759;28;20051;-56
2022/11/30 05:45:51;;;;;;;7.68;5.03;;;19.80;61.30;;;;;;4973837;28;20049;-57
2022/11/30 05:48:17;;;;;;;7.75;5.10;;;19.80;61.30;;;;;;4972034;28;20078;-57
2022/11/30 05:50:42;;;;;;;6.75;4.43;;;19.80;61.30;;;;;;4973186;28;20167;-57
2022/11/30 05:53:08;;;;;;;7.15;5.10;;;19.80;61.30;;;;;;4973944;28;20038;-57
2022/11/30 05:55:34;;;;;;;8.00;5.35;;;19.80;61.20;;;;;;4973690;28;20054;-57
2022/11/30 05:58:00;;;;;;;7.97;5.50;;;19.80;61.20;;;;;;4973174;28;20046;-57
2022/11/30 06:00:25;;;;;;;7.00;4.93;;;19.80;61.20;;;;;;4973168;28;20098;-57
2022/11/30 06:02:55;;;;;;;7.68;5.50;;;19.90;61.20;;;;;;4973586;28;20131;-57
2022/11/30 06:05:21;;;;;;;7.20;5.35;;;19.80;61.20;;;;;;4972355;28;20039;-57
2022/11/30 06:07:46;;;;;;;6.72;4.75;;;19.90;61.20;;;;;;4973503;28;20105;-57
2022/11/30 06:10:12;;;;;;;8.80;5.68;;;19.80;61.20;;;;;;4972963;28;20047;-57
2022/11/30 06:12:37;;;;;;;6.90;4.45;;;19.90;61.20;;;;;;4972992;28;20043;-57
2022/11/30 06:15:03;;;;;;;7.57;5.38;;;19.90;61.20;;;;;;4973387;28;20055;-57
2022/11/30 06:17:29;;;;;;;7.70;5.25;;;19.90;61.10;;;;;;4973109;28;20043;-57
2022/11/30 06:19:54;;;;;;;7.00;5.55;;;19.90;61.20;;;;;;4972663;28;20051;-57
2022/11/30 06:22:20;;;;;;;7.40;4.90;;;19.90;61.10;;;;;;4973198;28;20142;-57
2022/11/30 06:24:45;;;;;;;7.65;4.97;;;19.90;61.10;;;;;;4973231;28;20046;-57
2022/11/30 06:27:11;;;;;;;6.63;4.47;;;19.90;61.10;;;;;;4972468;28;20517;-57
2022/11/30 06:29:36;;;;;;;7.85;5.43;;;19.90;61.10;;;;;;4973149;28;20490;-57
2022/11/30 06:32:02;;;;;;;7.15;5.05;;;19.90;61.00;;;;;;4971837;28;20047;-58
2022/11/30 06:34:30;;;;;;;7.88;5.00;;;19.90;61.00;;;;;;4972715;28;20141;-58
2022/11/30 06:36:56;;;;;;;8.43;4.90;;;19.90;61.00;;;;;;4973275;28;20058;-57
2022/11/30 06:39:22;;;;;;;7.88;4.85;;;19.90;61.00;;;;;;4972951;28;20039;-57
2022/11/30 06:41:47;;;;;;;9.55;5.55;;;19.90;60.90;;;;;;4975497;28;20116;-57
2022/11/30 06:44:13;;;;;;;7.43;5.13;;;20.00;61.00;;;;;;4976613;28;20602;-57
2022/11/30 06:46:38;;;;;;;8.93;5.30;;;19.90;60.90;;;;;;4977126;28;20368;-57
2022/11/30 06:49:05;;;;;;;8.55;5.30;;;19.90;60.90;;;;;;4976559;28;20613;-57
2022/11/30 06:51:30;;;;;;;8.70;5.43;;;19.90;61.00;;;;;;4976444;28;20486;-58
2022/11/30 06:53:56;;;;;;;11.43;5.28;;;19.90;61.10;;;;;;4976477;28;20079;-57
2022/11/30 06:56:21;;;;;;;9.45;5.40;;;19.90;61.10;;;;;;4976637;28;20049;-57
2022/11/30 06:58:47;;;;;;;10.95;5.70;;;19.90;61.10;;;;;;4976453;28;20042;-57
2022/11/30 07:01:13;;;;;;;7.90;4.93;;;20.00;61.20;;;;;;4975865;28;20054;-57
2022/11/30 07:03:39;;;;;;;8.52;5.30;;;20.00;61.30;;;;;;4976462;28;20042;-57
2022/11/30 07:06:10;;;;;;;9.43;5.60;;;20.00;61.30;;;;;;4976817;28;20520;-57
2022/11/30 07:08:35;;;;;;;8.98;5.30;;;20.00;61.40;;;;;;4985213;28;20046;-57
2022/11/30 07:11:01;;;;;;;9.18;5.38;;;20.00;61.50;;;;;;4976896;28;20054;-56
2022/11/30 07:13:26;;;;;;;8.00;5.00;;;20.00;61.70;;;;;;4976185;28;20038;-57
2022/11/30 07:15:52;;;;;;;8.27;5.07;;;20.00;61.80;;;;;;4976039;28;20053;-57
2022/11/30 07:18:17;;;;;;;9.45;5.53;;;20.10;62.00;;;;;;4976121;28;20074;-57
2022/11/30 07:20:43;;;;;;;7.18;4.70;;;20.00;61.90;;;;;;4976419;28;20117;-56
2022/11/30 07:26:05;;;;;;;9.45;4.97;;;20.00;62.00;;;;;;4976520;28;20047;-57
2022/11/30 07:28:31;;;;;;;6.93;4.60;;;20.00;62.20;;;;;;4974728;28;20043;-55
2022/11/30 07:30:56;;;;;;;8.82;5.18;;;20.10;62.30;;;;;;4975853;28;20109;-54
2022/11/30 07:33:22;;;;;;;8.30;5.07;;;20.10;62.30;;;;;;4976047;28;20047;-54
2022/11/30 07:35:47;;;;;;;7.35;4.90;;;20.10;62.40;;;;;;4976480;28;20191;-55
2022/11/30 07:38:13;;;;;;;8.07;5.35;;;20.10;62.40;;;;;;4975533;28;20126;-54
2022/11/30 07:40:39;;;;;;;10.88;5.07;;;20.10;62.40;;;;;;4975945;28;20054;-55
2022/11/30 07:43:07;;;;;;;7.55;5.28;;;20.20;62.50;;;;;;4975789;28;20125;-55
2022/11/30 07:45:33;;;;;;;6.97;4.85;;;20.20;62.50;;;;;;4976058;28;20133;-55
2022/11/30 07:47:58;;;;;;;7.05;4.80;;;20.10;62.60;;;;;;4976089;28;20053;-55
2022/11/30 07:50:24;;;;;;;7.45;4.97;;;20.10;62.50;;;;;;4974890;28;20053;-55
2022/11/30 07:52:49;;;;;;;7.68;5.15;;;20.10;62.50;;;;;;4974846;28;20038;-55
2022/11/30 07:55:15;;;;;;;7.15;4.97;;;20.10;62.60;;;;;;4975673;28;20045;-55
2022/11/30 07:57:40;;;;;;;6.93;4.78;;;20.20;62.70;;;;;;4975056;28;20051;-56
2022/11/30 08:00:08;;;;;;;8.35;5.15;;;20.20;62.70;;;;;;4975557;28;20035;-55
2022/11/30 08:02:33;;;;;;;7.55;4.65;;;20.10;62.70;;;;;;4974344;28;20477;-55
2022/11/30 08:04:59;;;;;;;7.75;4.50;;;20.20;62.80;;;;;;4975229;28;20078;-55
2022/11/30 08:07:24;;;;;;;8.57;4.72;;;20.20;62.80;;;;;;4975292;28;20118;-55
2022/11/30 08:09:50;;;;;;;6.60;4.53;;;20.20;62.80;;;;;;4975480;28;20042;-55
2022/11/30 08:12:16;;;;;;;6.70;4.63;;;20.20;62.70;;;;;;4974443;28;20121;-55
2022/11/30 08:14:41;;;;;;;8.13;5.30;;;20.20;62.80;;;;;;4978973;28;20503;-55
2022/11/30 08:17:08;;;;;;;8.77;5.00;;;20.20;62.70;;;;;;4994204;28;20042;-55
2022/11/30 08:19:33;;;;;;;7.57;4.95;;;20.20;62.80;;;;;;4994096;28;20049;-55
2022/11/30 08:21:59;;;;;;;7.95;4.70;;;20.20;62.80;;;;;;4994456;28;20042;-55
2022/11/30 08:24:24;;;;;;;6.97;4.80;;;20.20;62.80;;;;;;4994049;28;20046;-55
2022/11/30 08:26:51;;;;;;;7.95;5.38;;;20.20;62.80;;;;;;4994005;28;20177;-57
2022/11/30 08:29:16;;;;;;;10.55;4.88;;;20.20;62.80;;;;;;4994547;28;20042;-57
2022/11/30 08:31:42;;;;;;;7.35;4.70;;;20.20;62.90;;;;;;4994413;28;20046;-57
2022/11/30 08:34:09;;;;;;;6.25;4.75;;;20.30;63.00;;;;;;4993862;28;20128;-57
2022/11/30 08:36:35;;;;;;;9.45;4.95;;;20.30;63.00;;;;;;4992983;28;20371;-58
2022/11/30 08:39:03;;;;;;;7.20;5.20;;;20.30;63.00;;;;;;4993154;28;20085;-57
2022/11/30 08:41:28;;;;;;;6.68;5.00;;;20.30;63.00;;;;;;4993085;28;20092;-58
2022/11/30 08:43:54;;;;;;;7.20;5.07;;;20.20;63.00;;;;;;4993719;28;20500;-57
2022/11/30 08:46:20;;;;;;;6.65;4.55;;;20.30;63.00;;;;;;4993407;28;20120;-58
2022/11/30 08:48:46;;;;;;;6.55;5.00;;;20.30;63.00;;;;;;4994674;28;20121;-58
2022/11/30 08:51:13;;;;;;;6.13;4.30;;;20.30;62.90;;;;;;4991980;28;20129;-58
2022/11/30 08:53:39;;;;;;;8.87;4.80;;;20.30;62.80;;;;;;4993327;28;20827;-58
2022/11/30 08:56:07;;;;;;;7.47;4.90;;;20.20;62.70;;;;;;4994018;28;20050;-58
2022/11/30 08:58:34;;;;;;;7.97;5.00;;;20.30;62.70;;;;;;4994140;28;20046;-58
2022/11/30 09:01:07;;;;;;;7.85;4.90;;;20.30;62.70;;;;;;4994100;28;20046;-57
2022/11/30 09:03:33;;;;;;;6.70;4.70;;;20.30;62.60;;;;;;4994060;28;20042;-58
2022/11/30 09:06:06;;;;;;;6.80;4.75;;;20.20;62.50;;;;;;4994251;28;20046;-58
2022/11/30 09:08:31;;;;;;;7.65;5.03;;;20.30;62.50;;;;;;4993247;28;20042;-58
2022/11/30 09:10:57;;;;;;;10.00;4.75;;;20.20;62.30;;;;;;4994246;28;20494;-58
2022/11/30 09:13:23;;;;;;;8.60;4.90;;;20.20;62.20;;;;;;4957465;28;20054;-57
2022/11/30 09:15:54;;;;;;;8.88;4.70;;;20.20;62.30;;;;;;4972151;28;20042;-57
2022/11/30 09:18:19;;;;;;;7.97;4.78;;;20.20;62.40;;;;;;4973988;28;20125;-57
2022/11/30 09:20:45;;;;;;;7.20;4.70;;;20.30;62.50;;;;;;4974017;28;20131;-58
2022/11/30 09:23:10;;;;;;;7.57;4.68;;;20.20;62.50;;;;;;4972072;28;20050;-58
2022/11/30 09:25:36;;;;;;;9.93;5.07;;;20.30;62.60;;;;;;4973956;28;20175;-57
2022/11/30 09:28:01;;;;;;;9.25;4.90;;;20.30;62.70;;;;;;4972588;28;20038;-57
2022/11/30 09:30:27;;;;;;;7.88;4.60;;;20.30;62.70;;;;;;4973336;28;20043;-58
2022/11/30 09:32:52;;;;;;;7.63;4.78;;;20.30;62.70;;;;;;4973914;28;20050;-58
2022/11/30 09:35:18;;;;;;;7.45;4.93;;;20.20;62.70;;;;;;4973781;28;20057;-58
2022/11/30 09:37:43;;;;;;;7.40;4.50;;;20.30;62.70;;;;;;4973086;28;20054;-58
2022/11/30 09:40:10;;;;;;;10.43;4.90;;;20.20;62.70;;;;;;4973601;28;20043;-58
2022/11/30 09:42:50;;;;;;;7.82;4.75;;;20.30;62.80;;;;;;4973538;28;20046;-57
2022/11/30 09:45:18;;;;;;;7.75;4.68;;;20.30;62.80;;;;;;4972471;28;20050;-57
2022/11/30 09:47:47;;;;;;;10.13;4.47;;;20.20;62.80;;;;;;4956858;28;20046;-57
2022/11/30 09:50:15;;;;;;;9.75;5.00;;;20.30;62.80;;;;;;4971635;28;20061;-58
2022/11/30 09:52:46;;;;;;;7.63;4.38;;;20.20;62.80;;;;;;4972758;28;20173;-58
2022/11/30 09:55:14;;;;;;;13.50;4.95;;;20.30;63.00;;;;;;4956407;28;20097;-57
2022/11/30 09:57:46;;;;;;;9.20;5.03;;;20.20;62.80;;;;;;4972192;28;20173;-57
2022/11/30 10:00:17;;;;;;;10.65;4.95;;;20.30;62.80;;;;;;4973085;28;20047;-57
2022/11/30 10:02:43;;;;;;;7.57;4.53;;;20.30;62.70;;;;;;4956496;28;20498;-58
2022/11/30 10:05:17;;;;;;;8.18;4.63;;;20.20;62.60;;;;;;4971834;28;20070;-57
2022/11/30 10:07:49;;;;;;;9.15;4.85;;;20.20;62.50;;;;;;4972615;28;20065;-57
2022/11/30 10:10:23;;;;;;;7.88;4.53;;;20.20;62.50;;;;;;4972338;28;20046;-57
2022/11/30 10:12:59;;;;;;;6.97;4.57;;;20.30;62.50;;;;;;4973389;28;20054;-58
2022/11/30 10:15:28;;;;;;;9.07;4.70;;;20.20;62.40;;;;;;4970836;28;20051;-57
2022/11/30 10:17:53;;;;;;;9.45;4.75;;;20.20;62.40;;;;;;4973125;28;20053;-57
2022/11/30 10:20:28;;;;;;;6.68;4.22;;;20.20;62.40;;;;;;4972994;28;20039;-58
2022/11/30 10:23:05;;;;;;;7.90;4.57;;;20.20;62.30;;;;;;4973434;28;20108;-57
2022/11/30 10:25:55;;;;;;;7.57;4.40;;;20.20;62.20;;;;;;4972638;28;20043;-58
2022/11/30 10:28:35;;;;;;;6.72;4.22;;;20.10;62.20;;;;;;4973302;28;20077;-58
2022/11/30 10:31:01;;;;;;;9.57;4.80;;;20.10;62.20;;;;;;4955632;28;20414;-57
2022/11/30 10:33:38;;;;;;;8.00;4.60;;;20.10;62.20;;;;;;4972643;28;20478;-57
2022/11/30 10:36:26;;;;;;;7.22;4.40;;;20.20;62.20;;;;;;4971539;28;20039;-57
2022/11/30 10:39:17;;;;;;;7.57;4.35;;;20.10;62.20;;;;;;4971333;28;20465;-58
2022/11/30 10:41:46;;;;;;;7.45;4.32;;;20.10;62.20;;;;;;4967768;28;20055;-58
2022/11/30 10:44:18;;;;;;;10.48;4.88;;;20.10;62.20;;;;;;4956023;28;20050;-58
2022/11/30 10:47:06;;;;;;;9.07;4.38;;;20.10;62.20;;;;;;4971610;28;20122;-59
2022/11/30 10:49:32;;;;;;;10.35;4.78;;;20.10;62.00;;;;;;4972147;28;20505;-58
2022/11/30 10:52:03;;;;;;;9.25;5.30;;;20.10;61.90;;;;;;4939659;28;20098;-56
2022/11/30 10:54:29;;;;;;;8.13;4.65;;;20.10;61.80;;;;;;4972476;28;20046;-58
2022/11/30 10:56:55;;;;;;;7.20;4.45;;;20.10;61.80;;;;;;4972809;28;20042;-58
2022/11/30 10:59:41;;;;;;;8.50;4.80;;;20.10;61.90;;;;;;4971256;28;20079;-58
2022/11/30 11:02:44;;;;;;;7.25;4.70;;;20.10;62.10;;;;;;4941880;28;20376;-58
2022/11/30 11:05:24;;;;;;;7.50;4.50;;;20.10;62.10;;;;;;4970940;28;20129;-58
2022/11/30 11:07:50;;;;;;;7.95;4.65;;;20.00;62.20;;;;;;4971238;28;20109;-58
2022/11/30 11:10:23;;;;;;;9.45;5.22;;;20.00;62.20;;;;;;4971462;28;20154;-58
2022/11/30 11:12:50;;;;;;;7.97;4.63;;;20.00;62.20;;;;;;4971852;28;20126;-58
2022/11/30 11:15:17;;;;;;;8.03;4.70;;;20.00;62.30;;;;;;4972426;28;20114;-58
2022/11/30 11:17:43;;;;;;;7.55;4.63;;;20.00;62.30;;;;;;4972569;28;20302;-58
2022/11/30 11:20:34;;;;;;;7.75;4.93;;;20.00;62.40;;;;;;4970327;28;20039;-58
2022/11/30 11:23:01;;;;;;;7.00;4.60;;;20.00;62.30;;;;;;4972530;28;20097;-58
2022/11/30 11:25:34;;;;;;;7.07;4.28;;;20.00;62.30;;;;;;4971277;28;20046;-58
2022/11/30 11:28:23;;;;;;;7.13;4.38;;;19.90;62.10;;;;;;4976035;28;20085;-58
2022/11/30 11:30:50;;;;;;;8.23;4.55;;;19.90;62.20;;;;;;4975914;28;20062;-58
2022/11/30 11:33:24;;;;;;;6.80;4.43;;;19.90;62.10;;;;;;4959275;28;20117;-58
2022/11/30 11:36:26;;;;;;;9.07;4.70;;;19.90;62.20;;;;;;4976249;28;20050;-58
2022/11/30 11:38:51;;;;;;;6.38;4.15;;;19.90;62.00;;;;;;4976636;28;20046;-58
2022/11/30 11:41:17;;;;;;;8.35;4.57;;;19.90;62.20;;;;;;4958596;28;20057;-57
2022/11/30 11:44:12;;;;;;;6.53;4.50;;;19.90;62.10;;;;;;4974620;28;20050;-58
2022/11/30 11:46:51;;;;;;;7.90;5.00;;;19.90;62.00;;;;;;4974099;28;20537;-58
2022/11/30 11:49:21;;;;;;;7.75;4.22;;;19.90;62.20;;;;;;4993995;28;20038;-59
2022/11/30 11:51:47;;;;;;;8.80;4.57;;;19.90;62.30;;;;;;4994302;28;20421;-59
2022/11/30 11:54:27;;;;;;;11.05;5.10;;;19.90;62.30;;;;;;4977862;28;20490;-59
2022/11/30 11:56:53;;;;;;;7.75;4.18;;;19.90;62.30;;;;;;4994243;28;20047;-59
2022/11/30 11:59:37;;;;;;;6.13;4.20;;;19.90;62.90;;;;;;4977950;28;20050;-58
2022/11/30 12:02:41;;;;;;;6.28;4.53;;;19.90;62.40;;;;;;4995522;28;20117;-58
2022/11/30 12:05:11;;;;;;;5.95;4.35;;;19.90;62.50;;;;;;4980188;28;20137;-59
2022/11/30 12:07:55;;;;;;;7.18;4.80;;;19.90;62.50;;;;;;4995139;28;20047;-59
2022/11/30 12:10:42;;;;;;;8.13;4.70;;;19.90;62.50;;;;;;4994404;28;20058;-59
2022/11/30 12:13:18;;;;;;;8.90;4.47;;;19.90;62.50;;;;;;4994149;28;20048;-59
2022/11/30 12:16:05;;;;;;;6.35;4.35;;;19.90;62.50;;;;;;4995437;28;20158;-59
2022/11/30 12:18:43;;;;;;;8.82;4.57;;;19.90;62.50;;;;;;4994653;28;20053;-59
2022/11/30 12:21:14;;;;;;;7.03;4.80;;;19.90;63.10;;;;;;4993454;28;20042;-59
2022/11/30 12:24:13;;;;;;;7.55;4.80;;;19.90;62.60;;;;;;4995135;28;20046;-59
2022/11/30 12:26:46;;;;;;;7.07;4.78;;;19.90;62.60;;;;;;4978719;28;20050;-59
2022/11/30 12:29:33;;;;;;;7.53;4.85;;;19.90;62.60;;;;;;4994777;28;20077;-59
2022/11/30 12:32:31;;;;;;;6.72;4.60;;;19.90;62.60;;;;;;4994677;28;20046;-59
2022/11/30 12:35:04;;;;;;;7.53;4.72;;;19.90;62.60;;;;;;4994127;28;20081;-59
2022/11/30 12:37:35;;;;;;;8.18;5.07;;;19.90;62.60;;;;;;4994722;28;20046;-59
2022/11/30 12:40:19;;;;;;;7.55;5.03;;;19.90;62.60;;;;;;4993837;28;20401;-59
2022/11/30 12:42:53;;;;;;;7.38;4.60;;;20.00;62.70;;;;;;4994852;28;20058;-59
2022/11/30 12:45:28;;;;;;;7.55;4.80;;;19.90;62.60;;;;;;4977020;28;20050;-59
2022/11/30 12:48:00;;;;;;;6.97;4.95;;;19.90;62.50;;;;;;4993684;28;20553;-59
2022/11/30 12:50:56;;;;;;;7.75;5.20;;;20.00;62.60;;;;;;4992964;28;20043;-59
2022/11/30 12:53:33;;;;;;;8.07;4.82;;;20.00;62.60;;;;;;4993959;28;20070;-59
2022/11/30 12:56:09;;;;;;;6.00;4.60;;;20.00;62.70;;;;;;4993421;28;20051;-59